createdAt,value
2022-08-22T00:01:02.943Z,1.60
2022-08-22T00:03:10.728Z,1.50
2022-08-22T00:03:46.510Z,1.50
2022-08-22T00:06:23.141Z,2.90
2022-08-22T00:09:24.704Z,1.50
2022-08-22T00:12:04.971Z,1.40
2022-08-22T00:14:42.641Z,2.60
2022-08-22T00:17:35.438Z,2.90
2022-08-22T00:20:14.385Z,1.80
2022-08-22T00:22:51.846Z,2.20
2022-08-22T00:25:43.511Z,1.50
2022-08-22T00:28:17.823Z,2.10
2022-08-22T00:30:57.066Z,2.10
2022-08-22T00:33:38.932Z,2.50
2022-08-22T00:36:20.133Z,1.90
2022-08-22T00:39:08.126Z,1.60
2022-08-22T00:41:59.088Z,1.50
2022-08-22T00:44:54.255Z,1.70
2022-08-22T00:47:48.868Z,1.60
2022-08-22T00:50:49.373Z,1.40
2022-08-22T00:53:36.314Z,1.70
2022-08-22T00:56:42.256Z,1.60
2022-08-22T00:59:35.262Z,1.50
2022-08-22T01:02:20.180Z,2.60
2022-08-22T01:05:14.212Z,2.60
2022-08-22T01:08:10.958Z,1.70
2022-08-22T01:11:07.200Z,2.00
2022-08-22T01:13:53.209Z,1.20
2022-08-22T01:16:36.354Z,1.30
2022-08-22T01:19:32.014Z,2.30
2022-08-22T01:22:35.463Z,1.80
2022-08-22T01:25:41.695Z,2.10
2022-08-22T01:28:36.183Z,1.30
2022-08-22T01:31:45.010Z,3.00
2022-08-22T01:34:44.717Z,1.80
2022-08-22T01:37:35.211Z,1.20
2022-08-22T01:40:53.359Z,1.40
2022-08-22T01:43:59.774Z,1.30
2022-08-22T01:46:37.774Z,1.40
2022-08-22T01:51:51.915Z,3.80
2022-08-22T01:54:42.943Z,1.10
2022-08-22T01:57:15.030Z,2.00
2022-08-22T01:59:48.519Z,1.40
2022-08-22T02:02:33.478Z,1.90
2022-08-22T02:05:12.901Z,2.90
2022-08-22T02:10:24.503Z,1.20
2022-08-22T02:13:08.180Z,1.30
2022-08-22T02:16:02.991Z,1.20
2022-08-22T02:18:47.039Z,1.90
2022-08-22T02:21:23.545Z,1.40
2022-08-22T02:24:01.220Z,2.20
2022-08-22T02:26:45.206Z,1.80
2022-08-22T02:29:20.605Z,1.30
2022-08-22T02:31:58.722Z,4.10
2022-08-22T02:34:39.303Z,1.70
2022-08-22T02:37:16.920Z,1.80
2022-08-22T02:39:54.493Z,1.90
2022-08-22T02:42:34.976Z,1.70
2022-08-22T02:45:23.101Z,1.30
2022-08-22T02:48:00.119Z,1.60
2022-08-22T02:50:38.863Z,2.00
2022-08-22T02:53:15.697Z,2.00
2022-08-22T02:56:00.298Z,2.70
2022-08-22T02:58:40.595Z,1.50
2022-08-22T03:01:37.205Z,1.20
2022-08-22T03:04:28.491Z,1.40
2022-08-22T03:07:12.780Z,2.90
2022-08-22T03:09:49.602Z,2.70
2022-08-22T03:12:30.106Z,2.40
2022-08-22T03:15:08.906Z,2.10
2022-08-22T03:17:49.527Z,1.60
2022-08-22T03:20:39.219Z,1.60
2022-08-22T03:23:17.167Z,2.50
2022-08-22T03:25:57.549Z,2.20
2022-08-22T03:28:33.873Z,1.30
2022-08-22T03:31:20.165Z,2.20
2022-08-22T03:34:22.587Z,1.20
2022-08-22T03:37:07.788Z,1.30
2022-08-22T03:40:01.075Z,1.30
2022-08-22T03:43:08.589Z,1.10
2022-08-22T03:46:05.461Z,1.80
2022-08-22T03:49:07.585Z,2.90
2022-08-22T03:52:03.243Z,4.60
2022-08-22T03:55:08.548Z,14.70
2022-08-22T03:58:27.373Z,12.10
2022-08-22T04:01:33.244Z,12.10
2022-08-22T04:04:41.642Z,11.70
2022-08-22T04:07:38.313Z,8.80
2022-08-22T04:10:51.714Z,7.20
2022-08-22T04:13:52.834Z,14.30
2022-08-22T04:16:55.471Z,17.30
2022-08-22T04:19:54.139Z,9.90
2022-08-22T04:22:40.492Z,10.50
2022-08-22T04:25:16.714Z,6.60
2022-08-22T04:27:55.877Z,11.10
2022-08-22T04:30:34.537Z,10.30
2022-08-22T04:33:11.273Z,8.50
2022-08-22T04:35:47.550Z,8.70
2022-08-22T04:38:23.342Z,8.60
2022-08-22T04:41:04.510Z,6.70
2022-08-22T04:43:42.405Z,9.30
2022-08-22T04:46:18.668Z,6.10
2022-08-22T04:48:55.985Z,5.50
2022-08-22T04:51:33.230Z,8.80
2022-08-22T04:54:27.215Z,7.20
2022-08-22T04:57:16.500Z,7.60
2022-08-22T04:59:47.421Z,8.70
2022-08-22T05:02:27.722Z,5.10
2022-08-22T05:05:04.364Z,4.70
2022-08-22T05:07:40.849Z,4.40
2022-08-22T05:10:17.378Z,5.00
2022-08-22T05:12:55.437Z,3.80
2022-08-22T05:15:29.545Z,5.00
2022-08-22T05:18:06.650Z,6.10
2022-08-22T05:20:40.558Z,2.80
2022-08-22T05:23:17.952Z,3.70
2022-08-22T05:25:54.375Z,3.30
2022-08-22T05:28:34.953Z,4.50
2022-08-22T05:31:14.763Z,4.20
2022-08-22T05:33:49.365Z,3.00
2022-08-22T05:36:26.481Z,2.10
2022-08-22T05:39:00.557Z,4.40
2022-08-22T05:41:35.688Z,3.90
2022-08-22T05:44:09.297Z,4.60
2022-08-22T05:46:44.149Z,3.20
2022-08-22T05:49:21.919Z,4.30
2022-08-22T05:52:11.454Z,3.90
2022-08-22T05:54:53.052Z,3.40
2022-08-22T05:57:29.707Z,1.70
2022-08-22T06:00:08.885Z,4.60
2022-08-22T06:03:01.655Z,2.40
2022-08-22T06:05:39.713Z,1.80
2022-08-22T06:08:18.638Z,3.80
2022-08-22T06:10:54.754Z,2.70
2022-08-22T06:13:35.409Z,1.80
2022-08-22T06:16:14.337Z,3.00
2022-08-22T06:18:47.186Z,2.20
2022-08-22T06:21:23.419Z,1.50
2022-08-22T06:23:58.597Z,2.20
2022-08-22T06:26:35.270Z,1.90
2022-08-22T06:29:08.623Z,2.60
2022-08-22T06:34:14.951Z,1.90
2022-08-22T06:36:48.013Z,2.60
2022-08-22T06:39:24.091Z,2.80
2022-08-22T06:42:01.172Z,1.50
2022-08-22T06:44:35.910Z,2.00
2022-08-22T06:47:11.600Z,2.30
2022-08-22T06:49:45.736Z,2.70
2022-08-22T06:52:23.448Z,2.30
2022-08-22T06:55:00.379Z,1.20
2022-08-22T06:57:34.517Z,1.90
2022-08-22T07:00:11.757Z,2.50
2022-08-22T07:02:45.265Z,1.10
2022-08-22T07:05:22.056Z,2.60
2022-08-22T07:07:53.211Z,2.10
2022-08-22T07:10:25.842Z,1.70
2022-08-22T07:12:59.906Z,2.10
2022-08-22T07:15:36.770Z,1.40
2022-08-22T07:18:10.780Z,2.60
2022-08-22T07:20:45.767Z,1.10
2022-08-22T07:23:33.014Z,2.30
2022-08-22T07:26:16.282Z,1.10
2022-08-22T07:28:58.426Z,0.80
2022-08-22T07:31:37.237Z,1.50
2022-08-22T07:34:35.885Z,1.00
2022-08-22T07:37:12.857Z,3.10
2022-08-22T07:39:53.778Z,0.70
2022-08-22T07:42:33.979Z,1.50
2022-08-22T07:45:13.620Z,1.90
2022-08-22T07:48:04.526Z,1.50
2022-08-22T07:50:44.157Z,2.60
2022-08-22T07:53:28.046Z,1.70
2022-08-22T07:56:01.679Z,1.50
2022-08-22T07:58:36.431Z,1.50
2022-08-22T08:01:11.096Z,1.90
2022-08-22T08:03:42.479Z,1.40
2022-08-22T08:06:13.506Z,2.50
2022-08-22T08:08:46.917Z,0.70
2022-08-22T08:11:20.651Z,1.60
2022-08-22T08:13:59.227Z,1.40
2022-08-22T08:16:42.262Z,1.50
2022-08-22T08:19:16.944Z,0.80
2022-08-22T08:21:53.719Z,1.30
2022-08-22T08:24:31.573Z,1.70
2022-08-22T08:27:35.152Z,0.70
2022-08-22T08:30:15.438Z,1.00
2022-08-22T08:32:59.567Z,1.20
2022-08-22T08:36:02.373Z,1.60
2022-08-22T08:38:40.634Z,1.10
2022-08-22T08:41:39.622Z,1.00
2022-08-22T08:44:24.875Z,1.10
2022-08-22T08:47:23.196Z,1.10
2022-08-22T08:50:12.154Z,0.70
2022-08-22T08:53:06.465Z,0.70
2022-08-22T08:55:48.560Z,1.30
2022-08-22T08:58:35.158Z,1.30
2022-08-22T09:01:34.182Z,0.90
2022-08-22T09:04:50.714Z,0.60
2022-08-22T09:07:59.886Z,1.30
2022-08-22T09:11:09.708Z,1.70
2022-08-22T09:13:56.637Z,0.70
2022-08-22T09:16:51.297Z,1.90
2022-08-22T09:19:54.879Z,0.50
2022-08-22T09:25:39.755Z,1.00
2022-08-22T09:28:18.134Z,0.70
2022-08-22T09:31:22.504Z,1.50
2022-08-22T09:34:12.732Z,1.30
2022-08-22T09:37:04.461Z,0.90
2022-08-22T09:39:44.396Z,0.50
2022-08-22T09:42:25.525Z,0.50
2022-08-22T09:45:29.980Z,0.50
2022-08-22T09:48:07.184Z,1.20
2022-08-22T09:50:54.645Z,1.20
2022-08-22T09:53:49.017Z,0.80
2022-08-22T09:56:34.738Z,1.10
2022-08-22T09:59:10.653Z,2.40
2022-08-22T10:01:51.799Z,1.00
2022-08-22T10:04:57.515Z,0.70
2022-08-22T10:07:55.059Z,0.50
2022-08-22T10:10:51.271Z,0.70
2022-08-22T10:13:43.708Z,0.80
2022-08-22T10:16:40.534Z,1.30
2022-08-22T10:19:18.976Z,0.70
2022-08-22T10:22:19.265Z,0.80
2022-08-22T10:25:12.884Z,0.50
2022-08-22T10:27:58.208Z,0.80
2022-08-22T10:30:35.768Z,0.40
2022-08-22T10:33:13.285Z,0.70
2022-08-22T10:35:56.583Z,0.60
2022-08-22T10:38:34.342Z,0.80
2022-08-22T10:41:30.334Z,0.50
2022-08-22T10:44:06.525Z,0.80
2022-08-22T10:46:42.196Z,0.70
2022-08-22T10:49:22.448Z,0.70
2022-08-22T10:52:15.317Z,1.30
2022-08-22T10:54:52.874Z,1.30
2022-08-22T10:57:52.813Z,1.20
2022-08-22T11:00:46.346Z,0.70
2022-08-22T11:03:26.028Z,0.50
2022-08-22T11:06:01.781Z,1.20
2022-08-22T11:09:00.870Z,0.80
2022-08-22T11:11:42.926Z,0.50
2022-08-22T11:14:36.000Z,0.60
2022-08-22T11:17:30.240Z,1.10
2022-08-22T11:20:19.559Z,1.60
2022-08-22T11:23:12.301Z,0.50
2022-08-22T11:25:57.567Z,0.60
2022-08-22T11:28:48.416Z,0.40
2022-08-22T11:31:36.513Z,0.50
2022-08-22T11:34:16.690Z,0.60
2022-08-22T11:36:57.064Z,0.90
2022-08-22T11:39:35.242Z,0.40
2022-08-22T11:42:16.483Z,0.80
2022-08-22T11:44:57.047Z,2.00
2022-08-22T11:47:32.208Z,0.60
2022-08-22T11:50:14.053Z,0.50
2022-08-22T11:53:13.187Z,1.00
2022-08-22T11:55:51.604Z,0.40
2022-08-22T11:58:43.859Z,0.40
2022-08-22T12:01:21.671Z,0.60
2022-08-22T12:04:09.837Z,0.40
2022-08-22T12:07:03.116Z,0.80
2022-08-22T12:09:44.717Z,0.40
2022-08-22T12:12:35.244Z,0.60
2022-08-22T12:15:14.802Z,0.40
2022-08-22T12:18:02.154Z,0.60
2022-08-22T12:20:53.960Z,0.70
2022-08-22T12:23:49.526Z,0.50
2022-08-22T12:26:30.750Z,0.40
2022-08-22T12:29:34.119Z,0.50
2022-08-22T12:33:00.895Z,0.40
2022-08-22T12:35:42.897Z,0.30
2022-08-22T12:38:33.721Z,0.50
2022-08-22T12:41:34.989Z,0.60
2022-08-22T12:44:23.690Z,0.20
2022-08-22T12:47:15.160Z,0.50
2022-08-22T12:50:13.157Z,0.70
2022-08-22T12:53:10.385Z,0.50
2022-08-22T12:56:12.153Z,1.40
2022-08-22T12:59:11.137Z,0.50
2022-08-22T13:01:46.830Z,0.30
2022-08-22T13:04:33.925Z,0.30
2022-08-22T13:07:22.686Z,0.50
2022-08-22T13:09:58.125Z,0.50
2022-08-22T13:12:33.423Z,0.50
2022-08-22T13:15:17.257Z,0.30
2022-08-22T13:17:52.940Z,0.60
2022-08-22T13:20:29.639Z,0.40
2022-08-22T13:23:02.441Z,0.40
2022-08-22T13:28:46.566Z,0.50
2022-08-22T13:31:25.879Z,1.30
2022-08-22T13:34:02.739Z,0.60
2022-08-22T13:36:42.035Z,0.30
2022-08-22T13:39:33.631Z,0.60
2022-08-22T13:42:14.552Z,0.50
2022-08-22T13:45:02.512Z,0.60
2022-08-22T13:47:39.482Z,0.70
2022-08-22T13:50:19.266Z,0.30
2022-08-22T13:52:56.918Z,0.30
2022-08-22T13:55:32.413Z,0.40
2022-08-22T13:58:11.118Z,0.70
2022-08-22T14:01:10.671Z,0.60
2022-08-22T14:03:49.203Z,0.80
2022-08-22T14:06:36.917Z,0.40
2022-08-22T14:09:17.595Z,0.30
2022-08-22T14:12:12.255Z,0.50
2022-08-22T14:14:47.015Z,0.40
2022-08-22T14:17:21.472Z,0.80
2022-08-22T14:20:01.496Z,0.90
2022-08-22T14:22:35.796Z,0.30
2022-08-22T14:25:10.764Z,0.20
2022-08-22T14:27:56.368Z,0.30
2022-08-22T14:30:32.601Z,0.60
2022-08-22T14:33:13.669Z,0.70
2022-08-22T14:35:52.879Z,0.40
2022-08-22T14:38:35.311Z,0.50
2022-08-22T14:41:11.078Z,0.60
2022-08-22T14:43:54.569Z,1.00
2022-08-22T14:46:32.247Z,0.90
2022-08-22T14:49:30.813Z,0.50
2022-08-22T14:52:19.338Z,0.80
2022-08-22T14:55:08.125Z,8.10
2022-08-22T14:57:46.931Z,12.30
2022-08-22T15:00:31.007Z,15.60
2022-08-22T15:03:14.891Z,11.80
2022-08-22T15:05:50.584Z,14.30
2022-08-22T15:08:27.968Z,16.80
2022-08-22T15:11:25.174Z,17.70
2022-08-22T15:14:00.939Z,17.90
2022-08-22T15:16:40.429Z,16.70
2022-08-22T15:19:28.010Z,16.90
2022-08-22T15:22:14.835Z,15.80
2022-08-22T15:24:56.822Z,16.40
2022-08-22T15:27:30.201Z,13.90
2022-08-22T15:30:07.002Z,14.50
2022-08-22T15:32:51.944Z,14.10
2022-08-22T15:35:33.503Z,18.80
2022-08-22T15:38:08.221Z,17.60
2022-08-22T15:40:45.676Z,21.10
2022-08-22T15:43:24.710Z,17.60
2022-08-22T15:46:18.072Z,20.60
2022-08-22T15:49:00.899Z,23.40
2022-08-22T15:51:40.454Z,25.60
2022-08-22T15:54:24.937Z,23.70
2022-08-22T15:57:24.015Z,23.90
2022-08-22T15:59:59.259Z,24.60
2022-08-22T16:02:35.925Z,21.00
2022-08-22T16:05:25.972Z,21.30
2022-08-22T16:08:09.753Z,18.20
2022-08-22T16:10:44.424Z,16.10
2022-08-22T16:13:38.117Z,15.50
2022-08-22T16:16:13.535Z,14.80
2022-08-22T16:19:10.447Z,17.00
2022-08-22T16:22:07.096Z,11.50
2022-08-22T16:25:10.679Z,10.40
2022-08-22T16:27:55.620Z,9.30
2022-08-22T16:30:39.716Z,8.10
2022-08-22T16:33:17.988Z,7.40
2022-08-22T16:36:25.838Z,8.00
2022-08-22T16:38:58.616Z,8.20
2022-08-22T16:41:37.346Z,7.40
2022-08-22T16:44:41.948Z,8.50
2022-08-22T16:47:19.181Z,7.10
2022-08-22T16:50:29.744Z,8.20
2022-08-22T16:53:06.967Z,7.10
2022-08-22T16:56:12.224Z,8.10
2022-08-22T16:59:19.697Z,7.50
2022-08-22T17:02:08.679Z,6.10
2022-08-22T17:07:30.285Z,5.00
2022-08-22T17:10:28.156Z,4.60
2022-08-22T17:13:18.544Z,5.80
2022-08-22T17:16:06.030Z,4.30
2022-08-22T17:18:51.208Z,6.10
2022-08-22T17:21:26.639Z,4.70
2022-08-22T17:24:07.688Z,4.50
2022-08-22T17:26:55.208Z,2.90
2022-08-22T17:29:39.123Z,3.20
2022-08-22T17:32:18.035Z,3.40
2022-08-22T17:35:01.421Z,3.50
2022-08-22T17:37:50.295Z,3.60
2022-08-22T17:40:32.947Z,4.20
2022-08-22T17:43:17.525Z,3.20
2022-08-22T17:46:13.278Z,2.50
2022-08-22T17:48:50.242Z,2.50
2022-08-22T17:51:29.685Z,1.80
2022-08-22T17:54:07.198Z,3.00
2022-08-22T17:56:50.129Z,1.80
2022-08-22T17:59:33.707Z,3.00
2022-08-22T18:02:16.386Z,1.50
2022-08-22T18:04:58.004Z,1.30
2022-08-22T18:07:40.363Z,1.90
2022-08-22T18:10:21.639Z,1.50
2022-08-22T18:13:01.413Z,1.50
2022-08-22T18:15:44.043Z,0.90
2022-08-22T18:18:30.289Z,1.30
2022-08-22T18:21:07.774Z,1.20
2022-08-22T18:23:42.926Z,0.80
2022-08-22T18:26:29.569Z,0.90
2022-08-22T18:29:08.698Z,0.90
2022-08-22T18:31:49.351Z,1.30
2022-08-22T18:34:31.243Z,0.80
2022-08-22T18:37:07.953Z,1.00
2022-08-22T18:39:48.186Z,0.70
2022-08-22T18:42:29.915Z,1.30
2022-08-22T18:45:00.822Z,0.90
2022-08-22T18:47:35.274Z,0.60
2022-08-22T18:50:30.729Z,0.80
2022-08-22T18:53:02.434Z,0.40
2022-08-22T18:55:51.340Z,0.50
2022-08-22T18:58:36.936Z,1.30
2022-08-22T19:01:30.983Z,1.10
2022-08-22T19:04:34.719Z,1.30
2022-08-22T19:07:25.678Z,0.80
2022-08-22T19:10:21.997Z,1.30
2022-08-22T19:13:09.461Z,1.00
2022-08-22T19:15:52.440Z,1.10
2022-08-22T19:18:41.417Z,0.60
2022-08-22T19:21:46.773Z,0.40
2022-08-22T19:24:57.977Z,0.80
2022-08-22T19:27:32.752Z,1.10
2022-08-22T19:30:09.333Z,0.30
2022-08-22T19:33:02.125Z,1.50
2022-08-22T19:35:43.255Z,1.10
2022-08-22T19:38:35.014Z,0.60
2022-08-22T19:41:06.116Z,0.80
2022-08-22T19:43:41.037Z,1.40
2022-08-22T19:46:14.953Z,1.20
2022-08-22T19:48:48.847Z,2.00
2022-08-22T19:51:29.292Z,1.40
2022-08-22T19:54:20.456Z,0.60
2022-08-22T19:57:07.386Z,1.10
2022-08-22T19:59:51.681Z,0.60
2022-08-22T20:02:37.074Z,1.10
2022-08-22T20:08:02.941Z,1.80
2022-08-22T20:10:49.128Z,1.20
2022-08-22T20:13:25.320Z,1.10
2022-08-22T20:16:23.586Z,0.80
2022-08-22T20:19:15.282Z,0.80
2022-08-22T20:21:54.906Z,0.90
2022-08-22T20:24:36.498Z,1.30
2022-08-22T20:27:30.104Z,1.10
2022-08-22T20:30:07.722Z,2.50
2022-08-22T20:32:43.786Z,1.00
2022-08-22T20:35:19.321Z,2.00
2022-08-22T20:38:06.706Z,2.00
2022-08-22T20:40:53.551Z,1.30
2022-08-22T20:43:35.389Z,1.30
2022-08-22T20:46:26.529Z,1.20
2022-08-22T20:48:59.058Z,1.10
2022-08-22T20:51:32.712Z,2.70
2022-08-22T20:54:16.707Z,1.90
2022-08-22T20:56:53.013Z,3.60
2022-08-22T20:59:33.432Z,3.80
2022-08-22T21:02:11.499Z,2.00
2022-08-22T21:04:47.787Z,1.40
2022-08-22T21:07:26.675Z,1.40
2022-08-22T21:10:22.234Z,4.40
2022-08-22T21:13:12.484Z,1.30
2022-08-22T21:15:46.696Z,2.50
2022-08-22T21:18:27.629Z,1.40
2022-08-22T21:21:09.862Z,2.20
2022-08-22T21:23:51.484Z,1.20
2022-08-22T21:26:28.667Z,1.70
2022-08-22T21:29:02.336Z,2.60
2022-08-22T21:31:36.547Z,0.90
2022-08-22T21:34:13.473Z,1.60
2022-08-22T21:36:44.848Z,1.70
2022-08-22T21:39:20.916Z,1.90
2022-08-22T21:41:53.990Z,1.50
2022-08-22T21:44:36.383Z,1.40
2022-08-22T21:47:30.786Z,1.20
2022-08-22T21:50:06.310Z,1.30
2022-08-22T21:52:39.380Z,2.70
2022-08-22T21:55:24.936Z,1.60
2022-08-22T21:58:12.655Z,2.00
2022-08-22T22:00:53.087Z,1.50
2022-08-22T22:03:26.068Z,1.40
2022-08-22T22:05:59.846Z,1.40
2022-08-22T22:08:32.702Z,1.20
2022-08-22T22:11:06.236Z,1.10
2022-08-22T22:13:39.899Z,1.40
2022-08-22T22:16:12.187Z,1.50
2022-08-22T22:18:43.409Z,2.00
2022-08-22T22:21:14.235Z,1.50
2022-08-22T22:23:45.226Z,1.60
2022-08-22T22:26:16.553Z,1.20
2022-08-22T22:28:50.285Z,1.60
2022-08-22T22:31:21.299Z,1.50
2022-08-22T22:33:52.023Z,1.40
2022-08-22T22:36:26.127Z,1.50
2022-08-22T22:38:57.114Z,1.60
2022-08-22T22:41:27.912Z,1.20
2022-08-22T22:43:58.747Z,2.10
2022-08-22T22:46:30.044Z,1.10
2022-08-22T22:49:01.021Z,1.20
2022-08-22T22:51:31.862Z,1.30
2022-08-22T22:54:02.604Z,2.10
2022-08-22T22:56:33.739Z,2.10
2022-08-22T22:59:13.477Z,1.20
2022-08-22T23:02:06.256Z,1.50
2022-08-22T23:04:39.765Z,1.30
2022-08-22T23:07:12.563Z,1.10
2022-08-22T23:09:44.574Z,1.40
2022-08-22T23:12:16.471Z,1.20
2022-08-22T23:14:47.627Z,1.70
2022-08-22T23:17:19.072Z,1.80
2022-08-22T23:19:51.694Z,2.50
2022-08-22T23:22:22.881Z,1.20
2022-08-22T23:24:54.066Z,1.00
2022-08-22T23:27:24.930Z,1.40
2022-08-22T23:29:55.972Z,1.90
2022-08-22T23:32:26.873Z,1.50
2022-08-22T23:34:58.194Z,1.80
2022-08-22T23:37:28.892Z,1.10
2022-08-22T23:40:00.355Z,0.90
2022-08-22T23:42:31.239Z,1.20
2022-08-22T23:45:02.187Z,1.70
2022-08-22T23:47:33.023Z,1.40
2022-08-22T23:50:06.086Z,1.40
2022-08-22T23:52:37.546Z,1.20
2022-08-22T23:55:09.971Z,1.00
2022-08-22T23:57:41.529Z,1.70
